• Join FlightAware (Why Join?)
  • Login
  • US Flag 
03:52AM EDT


 

Airport Tracker/Info


-or-


 

Live Flight TrackerFlight Track Log ✈ AWI3767 ✈ 05-Jul-2014 ✈ KPHL - KCLE

Flight Track Log - Related Links

Times and Time Zones

All times are in EDT time to prevent confusion due to time zone crossing. See the AWI3767 flight status page for this flight to view local times or setup timezone preferences in your user account.

Time Position Orientation Groundspeed Altitude Reporting Facility
EDT Latitude Longitude Course Direction KTS MPH feet Rate Location/Type
09:41AM 39.8667 -75.2833 311° West 163 188 800  Level Philadelphia TRACON
09:42AM 39.8333 -75.3667 243° Southwest 215 247 3,300 2,100 Climbing Philadelphia TRACON
09:43AM 39.8167 -75.4500 255° West 262 302 5,500 2,280 Climbing Philadelphia TRACON
09:44AM 40.0723 -75.4223 323° Northwest  Level FlightAware Approximate
09:44AM 39.8000 -75.5333 255° West 278 320 8,000  Level Philadelphia TRACON
09:45AM 40.1423 -75.4923 323° Northwest  Level FlightAware Approximate
09:45AM 39.8667 -75.5500 349° North 266 306 10,600  Level Philadelphia TRACON
09:46AM 40.2156 -75.5500 North  Level FlightAware Approximate
09:46AM 39.9500 -75.5500 360° North 267 307 12,900  Level Philadelphia TRACON
09:47AM 40.2740 -75.6358 311° West  Level FlightAware Approximate
09:47AM 40.0333 -75.5667 351° North 338 389 13,100  Level Philadelphia TRACON
09:48AM 40.1267 -75.5597 North 333 383 13,000 -60 Descending New York Center
09:49AM 40.2036 -75.5650 357° North 345 397 13,000 900 Level New York Center
09:50AM 40.2794 -75.6492 320° Northwest 328 377 14,800 1,740 Climbing New York Center
09:51AM 40.3383 -75.7378 311° West 314 361 16,500 1,560 Climbing New York Center
09:52AM 40.3992 -75.8264 312° West 319 367 18,000 1,080 Climbing New York Center
09:53AM 40.4467 -75.9308 301° West 333 383 18,700 660 Climbing New York Center
09:54AM 40.4628 -76.0414 281° West 333 383 19,400 3,600 Climbing New York Center
09:55AM 40.4858 -76.1767 283° West 348 400 26,000 960 Climbing New York Center
09:56AM 40.5033 -76.2928 281° West 354 407 21,400 -1,920 Descending New York Center
09:57AM 40.5222 -76.4228 281° West 359 413 22,200 720 Climbing New York Center
09:58AM 40.5431 -76.5528 282° West 359 413 22,900 1,440 Climbing New York Center
09:59AM 40.5703 -76.6725 287° West 354 407 25,100 1,560 Climbing New York Center
10:00AM 40.6019 -76.7900 290° West 348 400 26,000 420 Climbing New York Center
10:01AM 40.6333 -76.9078 289° West 342 394 26,000  Level New York Center
10:02AM 40.6644 -77.0336 288° West 348 400 26,000  Level New York Center
10:03AM 40.6975 -77.1544 290° West 353 406 26,000  Level New York Center
10:04AM 40.7303 -77.2781 289° West 353 406 26,000  Level New York Center
10:06AM 40.7722 -77.4283 290° West 357 411 26,000  Level Cleveland Center
10:07AM 40.8050 -77.5519 289° West 357 411 26,000  Level Cleveland Center
10:08AM 40.8361 -77.6778 288° West 360 414 26,000  Level Cleveland Center
10:09AM 40.8683 -77.8014 289° West 361 415 26,000  Level Cleveland Center
10:10AM 40.9058 -77.9531 288° West 361 415 26,000  Level Cleveland Center
10:11AM 40.9306 -78.0814 284° West 361 415 26,000  Level Cleveland Center
10:12AM 40.9514 -78.2100 282° West 361 415 26,000  Level Cleveland Center
10:13AM 40.9747 -78.3464 283° West 361 415 26,000  Level Cleveland Center
10:14AM 40.9953 -78.4772 282° West 362 417 26,000  Level Cleveland Center
10:15AM 41.0189 -78.6114 283° West 373 429 26,000  Level Cleveland Center
10:16AM 41.0386 -78.7422 281° West 371 427 26,000  Level Cleveland Center
10:17AM 41.0597 -78.8736 282° West 370 426 26,000  Level Cleveland Center
10:18AM 41.0817 -79.0058 282° West 368 423 26,000  Level Cleveland Center
10:19AM 41.1142 -79.1614 286° West 368 423 26,000  Level Cleveland Center
10:20AM 41.1400 -79.2906 285° West 367 422 26,000  Level Cleveland Center
10:21AM 41.1675 -79.4217 286° West 369 425 26,000  Level Cleveland Center
10:22AM 41.1956 -79.5511 286° West 368 423 26,000  Level Cleveland Center
10:23AM 41.2225 -79.6828 285° West 367 422 26,000 -300 Level Cleveland Center
10:24AM 41.2494 -79.8136 285° West 370 426 25,500 -840 Descending Cleveland Center
10:25AM 41.2817 -79.9728 285° West 373 429 24,300 -780 Descending Cleveland Center
10:26AM 41.3089 -80.1067 285° West 375 432 24,000 -1,140 Descending Cleveland Center
10:27AM 41.3350 -80.2367 285° West 376 433 22,000 -2,100 Descending Cleveland Center
10:28AM 41.3631 -80.3728 285° West 357 411 19,700 -1,980 Descending Cleveland Center
10:29AM 41.3867 -80.4961 284° West 347 399 18,000 -1,860 Descending Cleveland Center
10:30AM 41.4114 -80.6208 285° West 346 398 15,900 -2,160 Descending Cleveland Center
10:31AM 41.4344 -80.7336 285° West 343 395 14,000 -2,040 Descending Cleveland Center
10:31AM 41.4364 -80.7431 285° West 345 397 13,800 -2,280 Descending Cleveland Center
10:32AM 41.4531 -80.8367 283° West 340 391 12,200 -2,040 Descending Cleveland Center
10:32AM 41.4597 -80.8656 287° West 344 396 11,700 -1,740 Descending Cleveland Center
10:33AM 41.4794 -80.9717 284° West 332 382 10,100 -1,680 Descending Cleveland Center
10:33AM 41.4869 -81.0025 288° West 330 380 10,000  Descending Cleveland Center
10:34AM 41.4994 -81.0806 282° West 300 345 10,100  Climbing Cleveland Center
10:34AM 41.5014 -81.1125 275° West 307 353 10,000 -120 Descending Cleveland Center
10:35AM 41.5033 -81.2067 272° West 315 362 10,000  Level Cleveland Center
10:35AM 41.5053 -81.2303 276° West 314 361 10,000 -900 Level Cleveland Center
10:36AM 41.5072 -81.3078 272° West 274 315 9,100 -1,380 Descending Cleveland Center
10:37AM 41.5097 -81.3300 279° West 274 315 8,600 -2,040 Descending Cleveland Center
10:37AM 41.5117 -81.4006 272° West 260 299 7,300 -1,860 Descending Cleveland Center
10:38AM 41.5125 -81.4303 272° West 270 311 6,700 -1,800 Descending Cleveland Center
10:38AM 41.5158 -81.4961 274° West 263 303 5,500 -1,680 Descending Cleveland Center
10:39AM 41.5169 -81.5269 273° West 266 306 5,000 -1,260 Descending Cleveland Center
10:39AM 41.5192 -81.5972 272° West 255 293 4,100 -1,020 Descending Cleveland Center
10:40AM 41.5200 -81.6306 272° West 247 284 4,000 -360 Descending Cleveland Center
10:40AM 41.5214 -81.6675 273° West 188 216 3,800 -600 Descending Cleveland Center
10:41AM 41.5133 -81.6964 250° West 202 232 3,400 -720 Descending Cleveland Center
10:41AM 41.4950 -81.7247 229° Southwest 179 206 3,100 -720 Descending Cleveland Center
10:42AM 41.4803 -81.7469 229° Southwest 187 215 2,700 -840 Descending Cleveland Center
10:42AM 41.4633 -81.7728 229° Southwest 170 196 2,300 -780 Descending Cleveland Center
10:43AM 41.4500 -81.7944 231° Southwest 175 201 1,900 -840 Descending Cleveland Center
10:43AM 41.4314 -81.8233 229° Southwest 152 175 1,400 -780 Descending Cleveland Center
10:44AM 41.4239 -81.8364 233° Southwest 158 182 1,100 -660 Descending Cleveland Center
10:46AM 41.4000 -81.8500 252° West  Level FlightAware Approximate